createdAt,value
2022-11-29T00:01:00.307Z,100277.09
2022-11-29T00:03:28.884Z,100268.50
2022-11-29T00:05:56.470Z,100272.72
2022-11-29T00:08:25.440Z,100275.09
2022-11-29T00:10:53.372Z,100280.06
2022-11-29T00:13:19.871Z,100276.97
2022-11-29T00:15:47.360Z,100279.88
2022-11-29T00:18:14.823Z,100279.88
2022-11-29T00:20:42.287Z,100270.38
2022-11-29T00:23:09.765Z,100264.38
2022-11-29T00:25:40.251Z,100270.44
2022-11-29T00:28:07.858Z,100273.03
2022-11-29T00:30:35.372Z,100274.00
2022-11-29T00:33:03.677Z,100259.72
2022-11-29T00:35:31.380Z,100265.91
2022-11-29T00:37:58.893Z,100263.66
2022-11-29T00:40:26.391Z,100271.78
2022-11-29T00:42:55.244Z,100266.69
2022-11-29T00:45:22.719Z,100262.31
2022-11-29T00:47:50.173Z,100264.03
2022-11-29T00:50:17.678Z,100263.09
2022-11-29T00:52:45.161Z,100267.84
2022-11-29T00:55:12.640Z,100268.78
2022-11-29T00:57:40.130Z,100262.03
2022-11-29T01:00:10.330Z,100261.03
2022-11-29T01:02:37.855Z,100266.06
2022-11-29T01:05:05.897Z,100264.78
2022-11-29T01:07:33.300Z,100268.00
2022-11-29T01:10:00.823Z,100268.00
2022-11-29T01:12:28.331Z,100268.47
2022-11-29T01:14:55.828Z,100272.41
2022-11-29T01:17:24.685Z,100271.94
2022-11-29T01:19:52.150Z,100269.25
2022-11-29T01:22:19.699Z,100273.47
2022-11-29T01:24:47.271Z,100271.03
2022-11-29T01:27:14.776Z,100270.13
2022-11-29T01:29:42.411Z,100272.84
2022-11-29T01:32:10.010Z,100268.09
2022-11-29T01:34:38.876Z,100278.34
2022-11-29T01:37:06.385Z,100274.41
2022-11-29T01:39:33.903Z,100274.25
2022-11-29T01:42:02.235Z,100274.72
2022-11-29T01:45:02.296Z,100277.91
2022-11-29T01:47:30.640Z,100270.00
2022-11-29T01:50:00.292Z,100268.31
2022-11-29T01:52:31.482Z,100270.97
2022-11-29T01:55:02.789Z,100274.25
2022-11-29T01:57:32.272Z,100274.09
2022-11-29T02:00:07.340Z,100280.44
2022-11-29T02:02:37.836Z,100276.41
2022-11-29T02:05:08.255Z,100277.06
2022-11-29T02:07:36.730Z,100281.31
2022-11-29T02:10:06.109Z,100279.25
2022-11-29T02:12:45.388Z,100279.44
2022-11-29T02:15:28.054Z,100286.97
2022-11-29T02:18:07.520Z,100276.47
2022-11-29T02:21:23.930Z,100282.97
2022-11-29T02:24:21.792Z,100280.16
2022-11-29T02:27:17.595Z,100284.31
2022-11-29T02:30:07.348Z,100286.28
2022-11-29T02:33:19.796Z,100295.53
2022-11-29T02:36:19.908Z,100295.78
2022-11-29T02:39:02.552Z,100298.22
2022-11-29T02:41:43.687Z,100296.00
2022-11-29T02:44:47.527Z,100294.25
2022-11-29T02:47:26.737Z,100300.09
2022-11-29T02:50:12.985Z,100291.16
2022-11-29T02:52:49.918Z,100303.69
2022-11-29T02:55:23.680Z,100309.09
2022-11-29T02:57:59.384Z,100310.19
2022-11-29T03:00:27.291Z,100304.06
2022-11-29T03:03:03.127Z,100314.88
2022-11-29T03:05:41.835Z,100317.53
2022-11-29T03:08:17.522Z,100312.16
2022-11-29T03:10:56.309Z,100306.88
2022-11-29T03:13:33.902Z,100310.88
2022-11-29T03:16:11.437Z,100314.69
2022-11-29T03:18:51.916Z,100319.09
2022-11-29T03:21:34.159Z,100319.09
2022-11-29T03:24:07.187Z,100311.34
2022-11-29T03:26:39.058Z,100320.66
2022-11-29T03:29:10.551Z,100321.31
2022-11-29T03:31:43.392Z,100331.66
2022-11-29T03:34:20.363Z,100334.84
2022-11-29T03:36:59.152Z,100335.72
2022-11-29T03:39:39.928Z,100332.72
2022-11-29T03:42:12.546Z,100339.41
2022-11-29T03:44:46.565Z,100335.88
2022-11-29T03:47:18.111Z,100339.34
2022-11-29T03:49:52.661Z,100335.78
2022-11-29T03:52:27.785Z,100340.97
2022-11-29T03:55:08.014Z,100336.19
2022-11-29T03:57:46.066Z,100337.59
2022-11-29T04:00:14.816Z,100342.22
2022-11-29T04:03:08.464Z,100338.16
2022-11-29T04:05:48.287Z,100348.72
2022-11-29T04:08:44.717Z,100336.72
2022-11-29T04:11:54.568Z,100340.56
2022-11-29T04:14:34.729Z,100340.09
2022-11-29T04:17:23.195Z,100344.72
2022-11-29T04:20:39.155Z,100340.75
2022-11-29T04:23:33.545Z,100336.50
2022-11-29T04:26:33.547Z,100343.69
2022-11-29T04:29:16.588Z,100341.03
2022-11-29T04:32:04.199Z,100346.66
2022-11-29T04:34:53.550Z,100351.41
2022-11-29T04:37:50.263Z,100355.28
2022-11-29T04:40:38.908Z,100357.59
2022-11-29T04:43:25.428Z,100362.56
2022-11-29T04:46:25.328Z,100357.00
2022-11-29T04:49:10.421Z,100370.78
2022-11-29T04:51:57.320Z,100367.00
2022-11-29T04:54:33.678Z,100369.13
2022-11-29T04:57:08.446Z,100369.53
2022-11-29T04:59:44.917Z,100366.53
2022-11-29T05:02:23.815Z,100368.84
2022-11-29T05:04:57.076Z,100376.13
2022-11-29T05:07:34.149Z,100375.47
2022-11-29T05:10:17.164Z,100375.69
2022-11-29T05:12:54.370Z,100381.88
2022-11-29T05:15:45.081Z,100375.94
2022-11-29T05:18:21.172Z,100384.59
2022-11-29T05:21:00.277Z,100383.69
2022-11-29T05:23:40.769Z,100381.88
2022-11-29T05:26:15.784Z,100380.94
2022-11-29T05:28:54.955Z,100393.66
2022-11-29T05:31:48.566Z,100392.13
2022-11-29T05:34:35.257Z,100392.38
2022-11-29T05:37:13.787Z,100392.03
2022-11-29T05:39:56.896Z,100388.56
2022-11-29T05:42:51.720Z,100391.00
2022-11-29T05:45:26.631Z,100397.91
2022-11-29T05:48:01.433Z,100395.81
2022-11-29T05:50:36.046Z,100397.84
2022-11-29T05:53:16.454Z,100395.41
2022-11-29T05:55:54.798Z,100405.25
2022-11-29T05:58:30.861Z,100400.63
2022-11-29T06:01:06.628Z,100401.66
2022-11-29T06:03:39.918Z,100406.25
2022-11-29T06:06:16.499Z,100404.41
2022-11-29T06:08:49.598Z,100412.00
2022-11-29T06:11:22.749Z,100407.41
2022-11-29T06:14:03.123Z,100420.28
2022-11-29T06:16:53.159Z,100415.91
2022-11-29T06:19:57.353Z,100423.69
2022-11-29T06:22:41.143Z,100417.50
2022-11-29T06:25:24.594Z,100426.28
2022-11-29T06:28:09.136Z,100424.69
2022-11-29T06:30:52.991Z,100430.59
2022-11-29T06:33:25.928Z,100436.97
2022-11-29T06:36:14.686Z,100432.81
2022-11-29T06:38:42.522Z,100441.66
2022-11-29T06:41:17.226Z,100447.81
2022-11-29T06:43:45.303Z,100441.81
2022-11-29T06:46:16.523Z,100451.28
2022-11-29T06:48:53.732Z,100450.78
2022-11-29T06:51:30.318Z,100453.75
2022-11-29T06:54:05.381Z,100445.59
2022-11-29T06:56:42.462Z,100451.66
2022-11-29T06:59:24.899Z,100453.38
2022-11-29T07:01:58.203Z,100453.16
2022-11-29T07:04:53.217Z,100466.25
2022-11-29T07:07:23.514Z,100457.25
2022-11-29T07:09:55.038Z,100457.03
2022-11-29T07:12:23.156Z,100461.47
2022-11-29T07:14:50.816Z,100463.88
2022-11-29T07:17:27.608Z,100469.31
2022-11-29T07:20:04.586Z,100471.03
2022-11-29T07:22:46.218Z,100471.75
2022-11-29T07:25:25.522Z,100483.06
2022-11-29T07:28:00.238Z,100474.72
2022-11-29T07:30:34.370Z,100475.25
2022-11-29T07:33:09.759Z,100481.78
2022-11-29T07:35:48.394Z,100488.97
2022-11-29T07:38:25.866Z,100488.06
2022-11-29T07:40:58.841Z,100489.59
2022-11-29T07:43:38.288Z,100496.69
2022-11-29T07:46:05.823Z,100492.28
2022-11-29T07:48:33.434Z,100495.53
2022-11-29T07:51:02.590Z,100495.53
2022-11-29T07:53:30.450Z,100503.69
2022-11-29T07:55:59.099Z,100503.38
2022-11-29T07:58:26.630Z,100505.13
2022-11-29T08:00:54.179Z,100506.03
2022-11-29T08:03:21.707Z,100509.34
2022-11-29T08:05:49.397Z,100509.06
2022-11-29T08:08:18.219Z,100506.56
2022-11-29T08:10:45.942Z,100502.47
2022-11-29T08:13:13.764Z,100505.19
2022-11-29T08:15:45.248Z,100514.38
2022-11-29T08:18:12.799Z,100511.59
2022-11-29T08:20:41.658Z,100513.16
2022-11-29T08:23:12.743Z,100515.03
2022-11-29T08:25:41.654Z,100515.75
2022-11-29T08:28:09.878Z,100511.41
2022-11-29T08:30:37.475Z,100512.72
2022-11-29T08:33:05.679Z,100511.13
2022-11-29T08:35:35.460Z,100509.06
2022-11-29T08:38:03.775Z,100506.88
2022-11-29T08:40:31.298Z,100509.81
2022-11-29T08:43:00.171Z,100520.06
2022-11-29T08:45:27.722Z,100517.88
2022-11-29T08:47:55.254Z,100522.75
2022-11-29T08:50:22.811Z,100523.38
2022-11-29T08:53:08.281Z,100522.59
2022-11-29T08:55:39.570Z,100519.56
2022-11-29T08:58:10.138Z,100533.16
2022-11-29T09:00:38.302Z,100527.47
2022-11-29T09:03:22.016Z,100530.06
2022-11-29T09:05:49.839Z,100538.63
2022-11-29T09:08:17.396Z,100534.50
2022-11-29T09:10:45.246Z,100541.13
2022-11-29T09:13:14.214Z,100544.66
2022-11-29T09:15:43.428Z,100547.25
2022-11-29T09:18:11.514Z,100546.00
2022-11-29T09:20:38.864Z,100548.84
2022-11-29T09:23:06.413Z,100549.69
2022-11-29T09:25:33.943Z,100549.25
2022-11-29T09:28:03.013Z,100545.03
2022-11-29T09:30:31.953Z,100551.44
2022-11-29T09:33:02.557Z,100555.38
2022-11-29T09:35:30.421Z,100546.03
2022-11-29T09:37:57.901Z,100550.16
2022-11-29T09:40:32.446Z,100554.84
2022-11-29T09:43:07.286Z,100557.53
2022-11-29T09:45:41.965Z,100552.38
2022-11-29T09:48:32.255Z,100552.94
2022-11-29T09:51:10.714Z,100560.47
2022-11-29T09:53:54.384Z,100558.44
2022-11-29T09:56:28.870Z,100553.88
2022-11-29T09:59:01.097Z,100550.81
2022-11-29T10:01:34.254Z,100559.50
2022-11-29T10:04:04.640Z,100555.34
2022-11-29T10:06:38.567Z,100550.38
2022-11-29T10:09:16.501Z,100557.47
2022-11-29T10:11:52.131Z,100553.78
2022-11-29T10:14:25.500Z,100554.19
2022-11-29T10:17:04.098Z,100543.06
2022-11-29T10:19:35.993Z,100555.69
2022-11-29T10:22:07.213Z,100554.03
2022-11-29T10:24:35.806Z,100555.13
2022-11-29T10:27:10.842Z,100554.94
2022-11-29T10:29:39.509Z,100554.84
2022-11-29T10:32:14.766Z,100556.94
2022-11-29T10:34:43.775Z,100545.97
2022-11-29T10:37:15.382Z,100551.59
2022-11-29T10:39:46.207Z,100555.00
2022-11-29T10:42:31.650Z,100552.88
2022-11-29T10:45:00.288Z,100555.31
2022-11-29T10:47:29.293Z,100554.94
2022-11-29T10:49:56.843Z,100563.91
2022-11-29T10:52:25.131Z,100559.06
2022-11-29T10:54:56.914Z,100562.72
2022-11-29T10:57:24.505Z,100560.16
2022-11-29T11:00:00.960Z,100566.03
2022-11-29T11:02:30.247Z,100557.41
2022-11-29T11:04:58.050Z,100557.50
2022-11-29T11:07:28.950Z,100564.94
2022-11-29T11:09:58.479Z,100567.91
2022-11-29T11:12:28.470Z,100561.25
2022-11-29T11:15:15.375Z,100567.38
2022-11-29T11:17:56.583Z,100572.84
2022-11-29T11:20:24.786Z,100568.91
2022-11-29T11:22:58.859Z,100567.94
2022-11-29T11:25:30.252Z,100564.81
2022-11-29T11:27:58.655Z,100569.25
2022-11-29T11:30:29.768Z,100569.56
2022-11-29T11:33:20.182Z,100570.75
2022-11-29T11:36:02.104Z,100567.56
2022-11-29T11:38:30.363Z,100565.72
2022-11-29T11:41:05.206Z,100576.34
2022-11-29T11:43:33.999Z,100568.16
2022-11-29T11:46:01.605Z,100572.34
2022-11-29T11:48:30.623Z,100571.56
2022-11-29T11:51:01.568Z,100576.34
2022-11-29T11:53:33.436Z,100571.72
2022-11-29T11:56:02.709Z,100571.09
2022-11-29T11:58:32.216Z,100571.72
2022-11-29T12:01:14.436Z,100572.97
2022-11-29T12:03:51.581Z,100573.69
2022-11-29T12:06:32.710Z,100576.25
2022-11-29T12:09:06.039Z,100575.72
2022-11-29T12:11:42.026Z,100579.22
2022-11-29T12:14:16.811Z,100580.00
2022-11-29T12:16:48.051Z,100580.19
2022-11-29T12:19:24.393Z,100579.78
2022-11-29T12:22:00.606Z,100582.06
2022-11-29T12:24:31.677Z,100566.47
2022-11-29T12:27:04.183Z,100584.88
2022-11-29T12:29:35.248Z,100579.38
2022-11-29T12:32:15.622Z,100581.34
2022-11-29T12:35:11.845Z,100582.94
2022-11-29T12:37:50.332Z,100582.34
2022-11-29T12:40:28.829Z,100588.25
2022-11-29T12:43:03.621Z,100584.88
2022-11-29T12:45:42.697Z,100591.16
2022-11-29T12:48:25.473Z,100593.34
2022-11-29T12:51:02.632Z,100588.66
2022-11-29T12:53:45.851Z,100586.69
2022-11-29T12:56:20.940Z,100598.03
2022-11-29T12:59:00.007Z,100593.41
2022-11-29T13:01:36.984Z,100601.44
2022-11-29T13:04:16.673Z,100597.13
2022-11-29T13:06:53.991Z,100605.03
2022-11-29T13:09:55.257Z,100604.81
2022-11-29T13:12:32.785Z,100604.25
2022-11-29T13:15:04.076Z,100610.47
2022-11-29T13:17:39.417Z,100604.94
2022-11-29T13:20:24.896Z,100605.78
2022-11-29T13:22:59.952Z,100603.22
2022-11-29T13:25:31.335Z,100608.84
2022-11-29T13:28:02.714Z,100608.84
2022-11-29T13:30:30.459Z,100612.56
2022-11-29T13:33:03.587Z,100615.16
2022-11-29T13:35:37.183Z,100614.69
2022-11-29T13:38:14.296Z,100616.34
2022-11-29T13:40:53.062Z,100622.03
2022-11-29T13:43:30.309Z,100621.31
2022-11-29T13:46:06.665Z,100622.19
2022-11-29T13:48:37.109Z,100635.81
2022-11-29T13:51:31.231Z,100630.91
2022-11-29T13:54:03.254Z,100628.19
2022-11-29T13:56:36.773Z,100634.81
2022-11-29T13:59:09.088Z,100626.88
2022-11-29T14:01:48.225Z,100634.31
2022-11-29T14:04:25.905Z,100638.56
2022-11-29T14:07:04.786Z,100634.75
2022-11-29T14:09:44.206Z,100636.41
2022-11-29T14:12:36.615Z,100639.00
2022-11-29T14:15:15.525Z,100639.41
2022-11-29T14:17:57.668Z,100640.13
2022-11-29T14:20:58.742Z,100637.19
2022-11-29T14:23:35.447Z,100639.56
2022-11-29T14:26:28.615Z,100637.63
2022-11-29T14:28:56.646Z,100638.50
2022-11-29T14:31:53.753Z,100642.38
2022-11-29T14:34:37.755Z,100647.34
2022-11-29T14:37:21.081Z,100643.81
2022-11-29T14:39:52.201Z,100645.25
2022-11-29T14:42:22.734Z,100643.38
2022-11-29T14:44:52.807Z,100653.97
2022-11-29T14:47:31.675Z,100647.72
2022-11-29T14:50:03.614Z,100651.53
2022-11-29T14:52:33.956Z,100653.53
2022-11-29T14:55:10.107Z,100663.50
2022-11-29T14:58:19.801Z,100653.09
2022-11-29T15:01:10.950Z,100652.78
2022-11-29T15:03:45.065Z,100662.91
2022-11-29T15:06:17.787Z,100661.09
2022-11-29T15:08:54.996Z,100666.75
2022-11-29T15:11:32.469Z,100663.19
2022-11-29T15:14:05.901Z,100658.88
2022-11-29T15:16:59.262Z,100670.03
2022-11-29T15:20:12.200Z,100671.13
2022-11-29T15:22:48.944Z,100675.50
2022-11-29T15:25:19.202Z,100675.81
2022-11-29T15:27:54.247Z,100680.97
2022-11-29T15:30:31.258Z,100680.34
2022-11-29T15:33:00.669Z,100695.16
2022-11-29T15:35:28.707Z,100694.81
2022-11-29T15:37:56.342Z,100695.59
2022-11-29T15:40:31.253Z,100702.09
2022-11-29T15:43:05.018Z,100692.59
2022-11-29T15:45:35.700Z,100701.38
2022-11-29T15:48:17.043Z,100708.00
2022-11-29T15:50:50.155Z,100703.25
2022-11-29T15:53:22.440Z,100705.19
2022-11-29T15:55:53.278Z,100707.94
2022-11-29T15:58:21.597Z,100709.81
2022-11-29T16:00:52.424Z,100707.25
2022-11-29T16:03:25.160Z,100707.00
2022-11-29T16:06:01.033Z,100716.94
2022-11-29T16:08:33.467Z,100710.13
2022-11-29T16:11:01.630Z,100720.38
2022-11-29T16:13:40.086Z,100719.97
2022-11-29T16:16:17.149Z,100720.38
2022-11-29T16:18:47.189Z,100720.25
2022-11-29T16:21:33.212Z,100716.63
2022-11-29T16:24:12.340Z,100723.56
2022-11-29T16:26:43.972Z,100725.22
2022-11-29T16:29:24.354Z,100726.13
2022-11-29T16:31:53.851Z,100730.19
2022-11-29T16:34:27.434Z,100727.94
2022-11-29T16:37:04.520Z,100740.03
2022-11-29T16:39:32.444Z,100741.34
2022-11-29T16:42:07.754Z,100746.09
2022-11-29T16:44:59.133Z,100746.59
2022-11-29T16:47:30.184Z,100746.53
2022-11-29T16:50:18.511Z,100745.16
2022-11-29T16:52:46.502Z,100753.16
2022-11-29T16:55:15.335Z,100749.91
2022-11-29T16:57:43.155Z,100752.28
2022-11-29T17:00:13.272Z,100753.72
2022-11-29T17:02:42.184Z,100756.25
2022-11-29T17:05:09.950Z,100757.63
2022-11-29T17:07:39.600Z,100758.91
2022-11-29T17:10:11.748Z,100757.03
2022-11-29T17:12:42.234Z,100761.56
2022-11-29T17:15:14.219Z,100760.56
2022-11-29T17:17:44.157Z,100751.91
2022-11-29T17:20:13.146Z,100768.16
2022-11-29T17:22:40.676Z,100765.19
2022-11-29T17:25:08.993Z,100767.41
2022-11-29T17:27:36.611Z,100765.31
2022-11-29T17:30:04.489Z,100767.88
2022-11-29T17:32:34.829Z,100769.91
2022-11-29T17:35:03.699Z,100768.28
2022-11-29T17:37:31.656Z,100767.91
2022-11-29T17:39:59.151Z,100768.94
2022-11-29T17:42:27.709Z,100767.69
2022-11-29T17:44:55.181Z,100778.41
2022-11-29T17:47:22.650Z,100780.84
2022-11-29T17:49:50.098Z,100792.59
2022-11-29T17:52:18.904Z,100793.13
2022-11-29T17:54:46.395Z,100791.09
2022-11-29T17:57:13.853Z,100787.41
2022-11-29T17:59:41.300Z,100792.75
2022-11-29T18:02:10.642Z,100792.91
2022-11-29T18:04:41.853Z,100799.03
2022-11-29T18:07:09.311Z,100793.84
2022-11-29T18:09:38.094Z,100794.28
2022-11-29T18:12:05.762Z,100797.59
2022-11-29T18:14:34.087Z,100797.44
2022-11-29T18:17:01.589Z,100797.19
2022-11-29T18:19:32.142Z,100801.63
2022-11-29T18:21:59.662Z,100799.84
2022-11-29T18:24:27.133Z,100802.25
2022-11-29T18:26:55.910Z,100799.38
2022-11-29T18:29:24.029Z,100797.88
2022-11-29T18:31:51.351Z,100804.50
2022-11-29T18:34:18.843Z,100807.75
2022-11-29T18:36:48.124Z,100813.09
2022-11-29T18:39:17.598Z,100808.53
2022-11-29T18:41:47.493Z,100805.06
2022-11-29T18:44:18.014Z,100806.25
2022-11-29T18:46:46.089Z,100801.84
2022-11-29T18:49:14.246Z,100811.84
2022-11-29T18:51:44.462Z,100807.91
2022-11-29T18:54:12.688Z,100808.75
2022-11-29T18:56:40.424Z,100810.28
2022-11-29T18:59:10.763Z,100800.59
2022-11-29T19:01:42.562Z,100804.66
2022-11-29T19:04:13.136Z,100807.38
2022-11-29T19:06:41.463Z,100821.03
2022-11-29T19:09:12.902Z,100816.13
2022-11-29T19:11:40.812Z,100813.44
2022-11-29T19:14:11.589Z,100815.84
2022-11-29T19:16:42.455Z,100818.25
2022-11-29T19:19:10.585Z,100819.22
2022-11-29T19:21:39.597Z,100821.94
2022-11-29T19:24:13.908Z,100826.56
2022-11-29T19:26:44.385Z,100825.09
2022-11-29T19:29:12.502Z,100825.88
2022-11-29T19:31:42.295Z,100829.63
2022-11-29T19:34:09.775Z,100828.31
2022-11-29T19:36:42.433Z,100825.88
2022-11-29T19:39:13.185Z,100823.31
2022-11-29T19:41:42.078Z,100824.44
2022-11-29T19:44:09.663Z,100829.72
2022-11-29T19:46:38.934Z,100835.50
2022-11-29T19:49:09.010Z,100828.16
2022-11-29T19:51:36.619Z,100830.13
2022-11-29T19:54:06.626Z,100836.25
2022-11-29T19:56:34.245Z,100836.25
2022-11-29T19:59:01.697Z,100835.38
2022-11-29T20:01:39.238Z,100841.25
2022-11-29T20:04:09.657Z,100837.53
2022-11-29T20:06:37.140Z,100838.72
2022-11-29T20:09:06.339Z,100844.31
2022-11-29T20:11:33.819Z,100847.50
2022-11-29T20:14:03.117Z,100846.97
2022-11-29T20:16:32.077Z,100850.19
2022-11-29T20:19:01.526Z,100858.03
2022-11-29T20:21:32.577Z,100859.50
2022-11-29T20:24:02.145Z,100869.31
2022-11-29T20:26:31.416Z,100863.50
2022-11-29T20:28:59.770Z,100873.28
2022-11-29T20:31:27.412Z,100865.03
2022-11-29T20:33:57.209Z,100863.50
2022-11-29T20:36:38.604Z,100871.22
2022-11-29T20:39:18.238Z,100859.16
2022-11-29T20:41:56.245Z,100870.03
2022-11-29T20:44:28.078Z,100869.34
2022-11-29T20:46:55.914Z,100864.00
2022-11-29T20:49:23.826Z,100859.63
2022-11-29T20:51:59.003Z,100865.41
2022-11-29T20:54:26.564Z,100876.44
2022-11-29T20:56:54.041Z,100874.59
2022-11-29T20:59:22.539Z,100870.63
2022-11-29T21:01:50.124Z,100878.25
2022-11-29T21:04:22.944Z,100876.38
2022-11-29T21:06:50.952Z,100869.13
2022-11-29T21:09:19.758Z,100871.88
2022-11-29T21:11:47.721Z,100876.25
2022-11-29T21:14:16.774Z,100872.94
2022-11-29T21:16:44.670Z,100865.03
2022-11-29T21:19:19.844Z,100880.84
2022-11-29T21:21:59.555Z,100876.38
2022-11-29T21:24:39.883Z,100880.72
2022-11-29T21:27:14.383Z,100882.09
2022-11-29T21:29:42.383Z,100878.25
2022-11-29T21:32:21.272Z,100876.53
2022-11-29T21:34:48.897Z,100883.94
2022-11-29T21:37:19.173Z,100885.81
2022-11-29T21:39:49.192Z,100888.69
2022-11-29T21:42:16.788Z,100894.84
2022-11-29T21:44:44.739Z,100891.03
2022-11-29T21:47:12.909Z,100890.88
2022-11-29T21:49:40.448Z,100887.47
2022-11-29T21:52:07.995Z,100896.25
2022-11-29T21:54:35.467Z,100899.56
2022-11-29T21:57:04.484Z,100887.47
2022-11-29T21:59:32.007Z,100900.06
2022-11-29T22:01:59.488Z,100887.19
2022-11-29T22:04:27.189Z,100897.88
2022-11-29T22:06:54.885Z,100893.97
2022-11-29T22:09:22.380Z,100894.16
2022-11-29T22:11:49.847Z,100891.06
2022-11-29T22:14:19.051Z,100884.94
2022-11-29T22:16:48.622Z,100889.41
2022-11-29T22:19:18.057Z,100885.94
2022-11-29T22:21:47.309Z,100890.41
2022-11-29T22:24:16.538Z,100888.78
2022-11-29T22:26:44.404Z,100884.03
2022-11-29T22:29:13.920Z,100894.97
2022-11-29T22:31:43.136Z,100897.56
2022-11-29T22:34:11.119Z,100900.78
2022-11-29T22:36:39.210Z,100889.78
2022-11-29T22:39:07.061Z,100895.72
2022-11-29T22:41:35.511Z,100893.09
2022-11-29T22:44:03.327Z,100896.44
2022-11-29T22:46:30.887Z,100893.47
2022-11-29T22:49:00.539Z,100894.72
2022-11-29T22:51:30.356Z,100900.00
2022-11-29T22:53:59.513Z,100891.84
2022-11-29T22:56:28.823Z,100900.06
2022-11-29T22:58:56.793Z,100894.97
2022-11-29T23:01:26.161Z,100899.09
2022-11-29T23:03:55.596Z,100902.09
2022-11-29T23:06:26.823Z,100897.66
2022-11-29T23:08:56.071Z,100898.44
2022-11-29T23:11:25.532Z,100896.94
2022-11-29T23:13:53.119Z,100909.22
2022-11-29T23:16:22.492Z,100902.75
2022-11-29T23:18:50.129Z,100906.53
2022-11-29T23:21:20.271Z,100912.41
2022-11-29T23:23:53.045Z,100907.22
2022-11-29T23:26:26.346Z,100911.72
2022-11-29T23:28:54.996Z,100910.19
2022-11-29T23:31:23.871Z,100914.63
2022-11-29T23:33:51.547Z,100908.63
2022-11-29T23:36:19.101Z,100912.03
2022-11-29T23:38:46.830Z,100906.47
2022-11-29T23:41:15.938Z,100905.06
2022-11-29T23:43:43.453Z,100903.47
2022-11-29T23:46:14.934Z,100911.06
2022-11-29T23:48:43.122Z,100906.38
2022-11-29T23:51:11.440Z,100904.34
2022-11-29T23:53:39.935Z,100907.03
2022-11-29T23:56:10.987Z,100903.25
2022-11-29T23:58:40.044Z,100903.34
